Time;durP1;ratioP1;P1;durP2;ratioP2;P2;SDS_P1;SDS_P2;PMS_P1;PMS_P2;Temp;Humidity;BMP_temperature;BMP_pressure;BME280_temperature;BME280_humidity;BME280_pressure;Samples;Min_cycle;Max_cycle;Signal;HPM_P1;HPM_P2
2022/12/09 00:02:12;;;;;;;30.65;19.80;;;2.40;99.90;;;;;;5056183;28;20036;-68
2022/12/09 00:04:38;;;;;;;30.35;20.38;;;2.20;99.90;;;;;;5056637;28;20081;-69
2022/12/09 00:07:04;;;;;;;26.88;19.45;;;2.20;99.90;;;;;;5055848;28;20056;-68
2022/12/09 00:09:31;;;;;;;26.77;19.65;;;2.20;99.90;;;;;;5056003;28;20458;-67
2022/12/09 00:11:56;;;;;;;30.73;20.48;;;2.20;99.90;;;;;;5039533;28;20041;-67
2022/12/09 00:14:22;;;;;;;28.83;21.23;;;2.20;99.90;;;;;;5055879;28;20125;-68
2022/12/09 00:16:48;;;;;;;30.70;20.17;;;2.20;99.90;;;;;;5039295;28;20035;-69
2022/12/09 00:19:14;;;;;;;31.58;20.00;;;2.20;99.90;;;;;;5056077;28;20029;-67
2022/12/09 00:21:42;;;;;;;28.38;20.55;;;2.20;99.90;;;;;;5056629;28;20037;-68
2022/12/09 00:24:11;;;;;;;30.80;20.75;;;2.20;99.90;;;;;;5056665;28;20035;-67
2022/12/09 00:26:38;;;;;;;29.85;20.52;;;2.20;99.90;;;;;;5056536;28;20102;-67
2022/12/09 00:29:04;;;;;;;30.92;20.65;;;2.10;99.90;;;;;;5055915;28;20041;-68
2022/12/09 00:31:33;;;;;;;30.23;19.95;;;2.20;99.90;;;;;;5056554;28;20033;-69
2022/12/09 00:34:05;;;;;;;30.33;21.02;;;2.20;99.90;;;;;;5056555;28;20033;-69
2022/12/09 00:36:31;;;;;;;35.97;20.45;;;2.20;99.90;;;;;;5056372;28;20115;-70
2022/12/09 00:38:58;;;;;;;32.92;21.17;;;2.20;99.90;;;;;;5039399;28;20033;-69
2022/12/09 00:41:24;;;;;;;28.80;21.00;;;2.10;99.90;;;;;;5055863;28;20040;-69
2022/12/09 00:43:51;;;;;;;31.15;20.10;;;2.00;99.90;;;;;;5056452;28;20414;-68
2022/12/09 00:46:17;;;;;;;30.98;21.42;;;2.00;99.90;;;;;;5055726;28;20308;-68
2022/12/09 00:48:45;;;;;;;31.63;20.42;;;2.00;99.90;;;;;;5059125;28;20358;-69
2022/12/09 00:51:17;;;;;;;32.85;21.23;;;2.10;99.90;;;;;;5043104;28;20029;-69
2022/12/09 00:53:43;;;;;;;30.65;21.15;;;2.10;99.90;;;;;;5060441;28;20052;-67
2022/12/09 00:56:09;;;;;;;31.98;21.55;;;2.10;99.90;;;;;;5060155;28;20025;-67
2022/12/09 00:58:35;;;;;;;33.00;21.75;;;2.10;99.90;;;;;;5042937;28;20120;-67
2022/12/09 01:01:01;;;;;;;32.05;22.73;;;2.10;99.90;;;;;;5060543;28;20040;-67
2022/12/09 01:03:27;;;;;;;33.88;22.15;;;2.10;99.90;;;;;;5059395;28;20045;-68
2022/12/09 01:05:54;;;;;;;33.08;21.67;;;2.00;99.90;;;;;;5042894;28;20083;-68
2022/12/09 01:08:20;;;;;;;31.65;21.58;;;1.90;99.90;;;;;;5059464;28;20048;-68
2022/12/09 01:10:46;;;;;;;34.95;21.58;;;1.90;99.90;;;;;;5059296;28;20037;-68
2022/12/09 01:13:14;;;;;;;31.52;22.13;;;1.90;99.90;;;;;;5059214;28;20297;-68
2022/12/09 01:15:40;;;;;;;32.33;20.63;;;1.90;99.90;;;;;;5042750;28;20044;-68
2022/12/09 01:18:06;;;;;;;31.20;20.75;;;1.90;99.90;;;;;;5042482;28;20032;-68
2022/12/09 01:20:33;;;;;;;30.23;20.80;;;1.90;99.90;;;;;;5059046;28;20078;-68
2022/12/09 01:23:00;;;;;;;32.10;21.50;;;1.90;99.90;;;;;;5059048;28;20393;-67
2022/12/09 01:25:26;;;;;;;36.88;22.00;;;2.00;99.90;;;;;;5059013;28;20383;-67
2022/12/09 01:27:51;;;;;;;31.15;20.92;;;1.90;99.90;;;;;;5042459;28;20104;-67
2022/12/09 01:30:17;;;;;;;32.45;21.58;;;1.80;99.90;;;;;;5059011;28;20024;-67
2022/12/09 01:32:43;;;;;;;32.65;21.95;;;1.80;99.90;;;;;;5042369;28;20032;-67
2022/12/09 01:35:09;;;;;;;33.92;21.35;;;1.80;99.90;;;;;;5058730;28;20132;-68
2022/12/09 01:37:36;;;;;;;32.70;22.17;;;1.80;99.90;;;;;;5058890;28;20032;-68
2022/12/09 01:40:09;;;;;;;28.75;21.30;;;1.70;99.90;;;;;;5058840;28;20036;-68
2022/12/09 01:42:35;;;;;;;33.67;22.95;;;1.80;99.90;;;;;;5058681;28;20033;-68
2022/12/09 01:45:19;;;;;;;37.15;23.27;;;1.80;99.90;;;;;;5058556;28;20396;-68
2022/12/09 01:47:55;;;;;;;37.22;22.15;;;1.80;99.90;;;;;;5058666;28;20036;-67
2022/12/09 01:50:21;;;;;;;32.90;22.55;;;1.80;99.90;;;;;;5058494;28;20040;-68
2022/12/09 01:52:49;;;;;;;33.47;21.50;;;1.80;99.90;;;;;;5059206;28;20021;-67
2022/12/09 01:55:15;;;;;;;32.50;21.67;;;1.70;99.90;;;;;;5059102;28;20060;-68
2022/12/09 01:57:42;;;;;;;36.13;22.73;;;1.60;99.90;;;;;;5058415;28;20036;-68
2022/12/09 02:00:08;;;;;;;31.65;21.88;;;1.60;99.90;;;;;;5041011;28;20025;-67
2022/12/09 02:02:45;;;;;;;31.08;21.95;;;1.50;99.90;;;;;;5058554;28;20084;-67
2022/12/09 02:05:12;;;;;;;33.60;22.33;;;1.50;99.90;;;;;;5058804;28;20120;-67
2022/12/09 02:07:41;;;;;;;33.40;22.40;;;1.50;99.90;;;;;;5058216;28;20422;-67
2022/12/09 02:10:13;;;;;;;35.58;22.83;;;1.60;99.90;;;;;;5025252;28;20395;-67
2022/12/09 02:13:00;;;;;;;33.28;22.50;;;1.50;99.90;;;;;;5042550;28;20039;-67
2022/12/09 02:15:52;;;;;;;36.20;23.27;;;1.30;99.90;;;;;;5058194;28;20029;-67
2022/12/09 02:18:22;;;;;;;32.72;22.52;;;1.40;99.90;;;;;;5058834;28;20345;-67
2022/12/09 02:21:21;;;;;;;36.88;23.27;;;1.40;99.90;;;;;;5057752;28;20040;-67
2022/12/09 02:24:07;;;;;;;38.10;23.48;;;1.40;99.90;;;;;;5040642;28;20313;-67
2022/12/09 02:26:59;;;;;;;36.83;23.48;;;1.40;99.90;;;;;;5057902;28;20035;-67
2022/12/09 02:29:28;;;;;;;35.88;22.73;;;1.40;99.90;;;;;;5058720;28;20087;-67
2022/12/09 02:32:15;;;;;;;39.28;24.55;;;1.40;99.90;;;;;;5057779;28;20219;-67
2022/12/09 02:34:53;;;;;;;37.00;23.52;;;1.40;99.90;;;;;;5058542;28;20028;-67
2022/12/09 02:37:26;;;;;;;37.47;24.58;;;1.40;99.90;;;;;;5058363;28;20170;-67
2022/12/09 02:40:05;;;;;;;34.75;23.67;;;1.50;99.90;;;;;;5057867;28;20103;-67
2022/12/09 02:42:36;;;;;;;37.13;24.05;;;1.50;99.90;;;;;;5041539;28;20025;-67
2022/12/09 02:45:06;;;;;;;36.10;23.38;;;1.50;99.90;;;;;;5057392;28;20045;-67
2022/12/09 02:47:41;;;;;;;38.35;23.73;;;1.30;99.90;;;;;;5057376;28;20047;-66
2022/12/09 02:50:14;;;;;;;34.47;22.98;;;1.30;99.90;;;;;;5057721;28;20033;-67
2022/12/09 02:52:41;;;;;;;34.92;23.65;;;1.20;99.90;;;;;;5057378;28;20044;-66
2022/12/09 02:55:09;;;;;;;35.45;23.83;;;1.20;99.90;;;;;;5057308;28;20057;-67
2022/12/09 02:57:37;;;;;;;35.33;24.20;;;1.30;99.90;;;;;;5057167;28;20424;-67
2022/12/09 03:00:04;;;;;;;35.97;24.20;;;1.30;99.90;;;;;;5058389;28;20037;-67
2022/12/09 03:02:43;;;;;;;38.13;23.10;;;1.40;99.90;;;;;;5057662;28;20067;-66
2022/12/09 03:05:30;;;;;;;38.20;23.77;;;1.30;99.90;;;;;;5056913;28;20124;-67
2022/12/09 03:08:33;;;;;;;35.92;22.67;;;1.10;99.90;;;;;;5057062;28;20033;-67
2022/12/09 03:11:12;;;;;;;31.65;22.23;;;0.90;99.90;;;;;;5056408;28;20068;-67
2022/12/09 03:14:18;;;;;;;31.98;23.02;;;0.90;99.90;;;;;;5057069;28;20407;-66
2022/12/09 03:16:47;;;;;;;34.20;23.02;;;1.00;99.90;;;;;;5057077;28;20304;-66
2022/12/09 03:19:19;;;;;;;30.73;21.75;;;1.10;99.90;;;;;;5040230;28;20029;-67
2022/12/09 03:21:47;;;;;;;35.40;21.77;;;1.10;99.90;;;;;;5057609;28;20044;-67
2022/12/09 03:24:16;;;;;;;32.40;22.25;;;1.00;99.90;;;;;;5056839;28;20135;-66
2022/12/09 03:26:43;;;;;;;36.60;22.58;;;1.00;99.90;;;;;;5056629;28;20397;-67
2022/12/09 03:29:17;;;;;;;33.88;22.50;;;1.00;99.90;;;;;;5057926;28;20029;-67
2022/12/09 03:31:45;;;;;;;37.08;22.63;;;1.00;99.90;;;;;;5056596;28;20047;-66
2022/12/09 03:34:15;;;;;;;31.25;21.75;;;1.10;99.90;;;;;;5057485;28;20044;-67
2022/12/09 03:36:45;;;;;;;36.15;23.45;;;1.10;99.90;;;;;;5057429;28;20037;-66
2022/12/09 03:39:14;;;;;;;43.03;24.35;;;1.20;99.90;;;;;;5057309;28;20032;-67
2022/12/09 03:41:46;;;;;;;39.63;24.42;;;1.40;99.90;;;;;;5057088;28;20086;-67
2022/12/09 03:44:28;;;;;;;43.33;24.02;;;1.40;99.90;;;;;;5039906;28;20071;-66
2022/12/09 03:46:54;;;;;;;46.67;23.65;;;1.40;99.90;;;;;;5057173;28;20040;-67
2022/12/09 03:49:20;;;;;;;52.67;23.98;;;1.40;99.90;;;;;;5057040;28;20041;-67
2022/12/09 03:51:52;;;;;;;45.10;23.33;;;1.50;99.90;;;;;;5039607;28;20040;-66
2022/12/09 03:54:27;;;;;;;49.83;24.20;;;1.50;99.90;;;;;;5056394;28;20049;-67
2022/12/09 03:56:55;;;;;;;46.38;24.83;;;1.70;99.90;;;;;;5056252;28;20036;-67
2022/12/09 03:59:23;;;;;;;54.78;24.17;;;1.70;99.90;;;;;;5056940;28;20035;-67
2022/12/09 04:01:49;;;;;;;45.53;23.75;;;1.70;99.90;;;;;;5039788;28;20103;-67
2022/12/09 04:04:16;;;;;;;49.35;25.27;;;1.70;99.90;;;;;;5056123;28;20066;-67
2022/12/09 04:06:42;;;;;;;50.05;24.30;;;1.80;99.90;;;;;;5039268;28;20045;-67
2022/12/09 04:09:10;;;;;;;50.65;24.25;;;1.90;99.90;;;;;;5039664;28;20033;-67
2022/12/09 04:11:36;;;;;;;43.80;24.20;;;1.90;99.90;;;;;;5056776;28;20033;-67
2022/12/09 04:14:02;;;;;;;52.47;24.85;;;2.00;99.90;;;;;;5056109;28;20029;-67
2022/12/09 04:16:28;;;;;;;54.65;25.58;;;2.00;99.90;;;;;;5056777;28;20043;-67
2022/12/09 04:18:55;;;;;;;61.75;26.52;;;2.10;99.90;;;;;;5055943;28;20078;-67
2022/12/09 04:21:21;;;;;;;56.03;26.15;;;2.10;99.90;;;;;;5056697;28;20329;-68
2022/12/09 04:23:46;;;;;;;53.63;23.95;;;2.20;99.90;;;;;;5059652;28;20048;-67
2022/12/09 04:26:15;;;;;;;97.28;26.05;;;2.20;99.90;;;;;;5060559;28;20106;-67
2022/12/09 04:28:41;;;;;;;95.00;24.83;;;2.40;99.90;;;;;;5060881;28;20037;-67
2022/12/09 04:31:14;;;;;;;64.75;24.45;;;2.50;99.90;;;;;;5059956;28;20116;-67
2022/12/09 04:33:40;;;;;;;61.17;27.27;;;2.50;99.90;;;;;;5060787;28;20028;-67
2022/12/09 04:36:08;;;;;;;71.60;26.52;;;2.50;99.90;;;;;;5059889;28;20075;-67
2022/12/09 04:38:34;;;;;;;77.30;24.90;;;2.50;99.90;;;;;;5060033;28;20094;-67
2022/12/09 04:41:01;;;;;;;58.65;23.52;;;2.60;99.90;;;;;;5059993;28;20041;-67
2022/12/09 04:43:28;;;;;;;62.90;23.58;;;2.60;99.90;;;;;;5060530;28;20392;-67
2022/12/09 04:46:03;;;;;;;173.55;72.25;;;2.40;99.90;;;;;;5060137;28;20063;-67
2022/12/09 04:48:30;;;;;;;138.07;27.85;;;2.40;99.90;;;;;;5060294;28;20308;-65
2022/12/09 04:50:56;;;;;;;62.22;22.92;;;2.30;99.90;;;;;;5026616;28;20044;-65
2022/12/09 04:53:22;;;;;;;89.60;22.58;;;2.30;99.90;;;;;;5059738;28;20363;-65
2022/12/09 04:55:48;;;;;;;75.22;24.20;;;2.40;99.90;;;;;;5060223;28;20057;-64
2022/12/09 04:58:14;;;;;;;51.40;22.10;;;2.50;99.90;;;;;;5059404;28;20032;-65
2022/12/09 05:00:40;;;;;;;48.30;21.73;;;2.60;99.90;;;;;;5060136;28;20432;-65
2022/12/09 05:03:05;;;;;;;54.15;21.33;;;2.60;99.90;;;;;;5042954;28;20056;-65
2022/12/09 05:05:31;;;;;;;61.65;22.27;;;2.50;99.90;;;;;;5059193;28;20053;-65
2022/12/09 05:07:57;;;;;;;47.70;21.13;;;2.60;99.90;;;;;;5059693;28;20025;-66
2022/12/09 05:10:23;;;;;;;43.85;21.42;;;2.50;99.90;;;;;;5026437;28;20040;-65
2022/12/09 05:12:49;;;;;;;93.38;22.15;;;2.50;99.90;;;;;;5042849;28;20040;-65
2022/12/09 05:15:16;;;;;;;105.32;22.52;;;2.60;99.90;;;;;;5059956;28;20104;-65
2022/12/09 05:17:41;;;;;;;86.28;22.02;;;2.70;99.90;;;;;;5042668;28;20178;-67
2022/12/09 05:20:07;;;;;;;44.22;21.75;;;2.70;99.90;;;;;;5059152;28;20039;-66
2022/12/09 05:22:34;;;;;;;46.08;21.45;;;2.70;99.90;;;;;;5042505;28;20029;-66
2022/12/09 05:25:00;;;;;;;72.80;22.40;;;2.70;99.90;;;;;;5059009;28;20067;-65
2022/12/09 05:27:26;;;;;;;60.63;22.35;;;2.70;99.90;;;;;;5058909;28;20052;-65
2022/12/09 05:29:51;;;;;;;81.13;21.85;;;2.70;99.90;;;;;;5042376;28;20029;-65
2022/12/09 05:32:17;;;;;;;64.43;22.77;;;2.90;99.90;;;;;;5059046;28;20037;-65
2022/12/09 05:34:43;;;;;;;53.35;21.58;;;2.90;99.90;;;;;;5058003;28;20033;-65
2022/12/09 05:37:13;;;;;;;53.47;22.15;;;3.00;99.90;;;;;;5059358;28;20401;-65
2022/12/09 05:39:39;;;;;;;76.07;21.77;;;2.90;99.90;;;;;;5059558;28;20056;-66
2022/12/09 05:42:06;;;;;;;53.15;21.17;;;2.90;99.90;;;;;;5058692;28;20435;-65
2022/12/09 05:44:31;;;;;;;56.58;21.05;;;2.90;99.90;;;;;;5059446;28;20341;-65
2022/12/09 05:46:57;;;;;;;47.70;20.23;;;2.80;99.90;;;;;;5059433;28;20076;-65
2022/12/09 05:49:23;;;;;;;51.10;20.60;;;2.80;99.90;;;;;;5042008;28;20036;-65
2022/12/09 05:51:49;;;;;;;50.78;20.45;;;2.80;99.90;;;;;;5058426;28;20036;-65
2022/12/09 05:54:14;;;;;;;51.50;20.85;;;2.90;99.90;;;;;;5059659;28;20033;-65
2022/12/09 05:56:40;;;;;;;58.95;22.45;;;3.00;99.90;;;;;;5058313;28;20045;-66
2022/12/09 05:59:06;;;;;;;49.55;22.02;;;3.00;99.90;;;;;;5059593;28;20065;-65
2022/12/09 06:01:32;;;;;;;53.10;20.35;;;3.00;99.90;;;;;;5058136;28;20029;-65
2022/12/09 06:03:58;;;;;;;47.83;19.58;;;3.00;99.90;;;;;;5058153;28;20033;-66
2022/12/09 06:06:26;;;;;;;50.35;18.67;;;2.80;99.90;;;;;;5058992;28;20053;-65
2022/12/09 06:08:55;;;;;;;42.95;18.20;;;2.70;99.90;;;;;;5025469;28;20036;-65
2022/12/09 06:11:21;;;;;;;47.65;19.92;;;2.80;99.90;;;;;;5041442;28;20032;-66
2022/12/09 06:13:48;;;;;;;44.80;18.83;;;2.80;99.90;;;;;;5025010;28;20025;-65
2022/12/09 06:16:18;;;;;;;41.80;18.08;;;2.80;99.90;;;;;;5057995;28;20129;-65
2022/12/09 06:18:44;;;;;;;48.30;19.42;;;2.80;99.90;;;;;;5058721;28;20033;-66
2022/12/09 06:21:12;;;;;;;46.40;19.42;;;2.80;99.90;;;;;;5057988;28;20024;-65
2022/12/09 06:23:40;;;;;;;48.53;19.95;;;2.90;99.90;;;;;;5058099;28;20029;-65
2022/12/09 06:26:06;;;;;;;48.38;19.75;;;3.00;99.90;;;;;;5041256;28;20041;-65
2022/12/09 06:28:32;;;;;;;47.50;20.38;;;3.00;99.90;;;;;;5058600;28;20025;-65
2022/12/09 06:30:59;;;;;;;47.90;20.05;;;2.90;99.90;;;;;;5057813;28;20423;-65
2022/12/09 06:33:25;;;;;;;49.10;20.13;;;2.90;99.90;;;;;;5057874;28;20099;-66
2022/12/09 06:35:51;;;;;;;46.45;20.65;;;2.80;99.90;;;;;;5057751;28;20290;-65
2022/12/09 06:38:17;;;;;;;43.58;19.73;;;2.90;99.90;;;;;;5057687;28;20036;-65
2022/12/09 06:40:43;;;;;;;47.58;19.65;;;2.90;99.90;;;;;;5057562;28;20029;-66
2022/12/09 06:43:10;;;;;;;46.00;20.95;;;2.90;99.90;;;;;;5058312;28;20273;-66
2022/12/09 06:45:36;;;;;;;48.35;20.98;;;2.90;99.90;;;;;;5058006;28;20025;-65
2022/12/09 06:48:03;;;;;;;42.65;20.08;;;2.70;99.90;;;;;;5040737;28;20119;-65
2022/12/09 06:50:29;;;;;;;46.90;20.77;;;2.70;99.90;;;;;;5057426;28;20037;-65
2022/12/09 06:52:55;;;;;;;48.65;20.83;;;2.70;99.90;;;;;;5057284;28;20053;-65
2022/12/09 06:55:21;;;;;;;46.95;20.95;;;2.70;99.90;;;;;;5024217;28;20124;-65
2022/12/09 06:57:47;;;;;;;47.60;22.25;;;2.70;99.90;;;;;;5040525;28;20117;-65
2022/12/09 07:00:13;;;;;;;50.25;22.33;;;2.70;99.90;;;;;;5057168;28;20118;-67
2022/12/09 07:02:39;;;;;;;46.72;21.73;;;2.60;99.90;;;;;;5057880;28;20059;-67
2022/12/09 07:05:05;;;;;;;46.47;20.75;;;2.70;99.90;;;;;;5057006;28;20029;-68
2022/12/09 07:07:32;;;;;;;52.42;22.77;;;2.70;99.90;;;;;;5057659;28;20071;-67
2022/12/09 07:10:00;;;;;;;47.33;21.25;;;2.70;99.90;;;;;;5057760;28;20071;-66
2022/12/09 07:12:26;;;;;;;52.05;23.05;;;2.70;99.90;;;;;;5057690;28;20404;-64
2022/12/09 07:14:52;;;;;;;47.92;21.10;;;2.70;99.90;;;;;;5024626;28;20044;-65
2022/12/09 07:17:19;;;;;;;48.28;21.77;;;2.80;99.90;;;;;;5007441;28;20039;-64
2022/12/09 07:19:45;;;;;;;45.38;20.45;;;2.80;99.90;;;;;;5058057;28;20083;-64
2022/12/09 07:22:11;;;;;;;48.65;21.52;;;2.80;99.90;;;;;;5057467;28;20301;-65
2022/12/09 07:24:37;;;;;;;48.45;21.67;;;2.80;99.90;;;;;;5057461;28;20395;-65
2022/12/09 07:27:06;;;;;;;47.47;21.20;;;2.80;99.90;;;;;;5039842;28;20392;-64
2022/12/09 07:29:33;;;;;;;45.75;22.27;;;4.90;99.90;;;;;;5057412;28;20060;-65
2022/12/09 07:31:58;;;;;;;42.22;21.08;;;5.50;99.90;;;;;;5056367;28;20064;-65
2022/12/09 07:34:24;;;;;;;43.53;21.90;;;4.80;99.90;;;;;;5056572;28;20317;-66
2022/12/09 07:36:50;;;;;;;41.08;21.35;;;4.30;99.90;;;;;;5057060;28;20103;-65
2022/12/09 07:39:17;;;;;;;45.60;22.23;;;4.00;99.90;;;;;;5057168;28;20033;-65
2022/12/09 07:41:43;;;;;;;40.17;21.27;;;3.80;99.90;;;;;;5057017;28;20111;-65
2022/12/09 07:44:10;;;;;;;37.03;19.92;;;3.70;99.90;;;;;;5056114;28;20040;-66
2022/12/09 07:46:37;;;;;;;40.53;21.20;;;3.70;99.90;;;;;;5039677;28;20037;-65
2022/12/09 07:49:04;;;;;;;39.58;21.08;;;3.60;99.90;;;;;;5056881;28;20308;-65
2022/12/09 07:51:31;;;;;;;39.47;20.60;;;3.60;99.90;;;;;;5039765;28;20037;-66
2022/12/09 07:53:57;;;;;;;46.38;22.27;;;3.60;99.90;;;;;;5056091;28;20041;-66
2022/12/09 07:56:23;;;;;;;37.42;19.75;;;3.50;99.90;;;;;;5056074;28;20065;-66
2022/12/09 07:58:52;;;;;;;42.90;21.42;;;3.50;99.90;;;;;;5039229;28;20132;-65
2022/12/09 08:01:24;;;;;;;40.08;20.08;;;3.50;99.90;;;;;;5056902;28;20048;-67
2022/12/09 08:03:50;;;;;;;;;;;3.60;99.90;;;;;;5039797;28;20435;-66
2022/12/09 08:06:19;;;;;;;41.13;20.70;;;3.40;99.90;;;;;;5056962;28;20255;-66
2022/12/09 08:08:44;;;;;;;47.63;20.98;;;3.40;99.90;;;;;;5056841;28;20056;-66
2022/12/09 08:11:15;;;;;;;37.00;19.80;;;3.40;99.90;;;;;;5039389;28;20037;-66
2022/12/09 08:13:41;;;;;;;41.30;20.88;;;3.40;99.90;;;;;;5056192;28;20068;-66
2022/12/09 08:16:09;;;;;;;40.13;19.67;;;3.50;99.90;;;;;;5039531;28;20099;-66
2022/12/09 08:18:35;;;;;;;43.17;21.17;;;3.50;99.90;;;;;;5057294;28;20120;-66
2022/12/09 08:21:22;;;;;;;41.15;20.70;;;3.50;99.90;;;;;;5056794;28;20025;-66
2022/12/09 08:23:48;;;;;;;40.88;20.27;;;3.60;99.90;;;;;;5056066;28;20412;-66
2022/12/09 08:26:16;;;;;;;42.97;20.20;;;3.70;99.90;;;;;;5056748;28;20041;-66
2022/12/09 08:28:42;;;;;;;36.20;18.85;;;3.70;99.90;;;;;;5056649;28;20025;-66
2022/12/09 08:31:10;;;;;;;39.10;20.25;;;3.60;99.90;;;;;;5056575;28;20056;-66
2022/12/09 08:33:37;;;;;;;40.90;20.05;;;3.60;99.90;;;;;;5055936;28;20067;-66
2022/12/09 08:36:08;;;;;;;40.63;20.05;;;3.60;99.90;;;;;;5039331;28;20033;-66
2022/12/09 08:38:33;;;;;;;41.72;20.65;;;3.70;99.90;;;;;;5055794;28;20040;-66
2022/12/09 08:41:11;;;;;;;44.00;20.85;;;3.70;99.90;;;;;;5055781;28;20304;-66
2022/12/09 08:43:38;;;;;;;39.10;20.50;;;3.80;99.90;;;;;;5055581;28;20145;-66
2022/12/09 08:46:03;;;;;;;41.60;20.42;;;3.90;99.90;;;;;;5055681;28;20045;-66
2022/12/09 08:48:29;;;;;;;39.70;19.30;;;3.70;99.90;;;;;;5022840;28;20040;-67
2022/12/09 08:50:56;;;;;;;46.00;21.58;;;3.80;99.90;;;;;;5038999;28;20033;-66
2022/12/09 08:53:21;;;;;;;40.92;21.25;;;3.70;99.90;;;;;;5055743;28;20112;-66
2022/12/09 08:55:47;;;;;;;39.15;20.60;;;3.50;99.90;;;;;;5056351;28;20121;-66
2022/12/09 08:58:13;;;;;;;39.70;20.17;;;3.60;99.90;;;;;;5055767;28;20021;-66
2022/12/09 09:00:39;;;;;;;38.35;19.65;;;3.60;99.90;;;;;;5055762;28;20128;-67
2022/12/09 09:03:05;;;;;;;44.05;19.85;;;3.80;99.90;;;;;;5039082;28;20043;-66
2022/12/09 09:05:31;;;;;;;40.80;19.92;;;3.70;99.90;;;;;;5055489;28;20049;-67
2022/12/09 09:07:56;;;;;;;35.92;18.90;;;3.80;99.90;;;;;;5039337;28;20037;-67
2022/12/09 09:10:22;;;;;;;35.53;18.65;;;3.80;99.90;;;;;;5060043;28;20099;-66
2022/12/09 09:12:48;;;;;;;36.58;19.23;;;3.90;99.90;;;;;;5042996;28;20270;-66
2022/12/09 09:15:14;;;;;;;34.22;18.17;;;3.90;99.90;;;;;;5026310;28;20040;-67
2022/12/09 09:17:40;;;;;;;36.65;17.98;;;4.00;99.90;;;;;;5042842;28;20112;-67
2022/12/09 09:20:06;;;;;;;33.92;18.35;;;4.00;99.90;;;;;;5060000;28;20029;-67
2022/12/09 09:22:33;;;;;;;36.80;20.33;;;4.20;99.90;;;;;;5059755;28;20029;-67
2022/12/09 09:24:59;;;;;;;37.38;19.35;;;4.20;99.90;;;;;;5025986;28;20033;-67
2022/12/09 09:27:25;;;;;;;40.00;20.67;;;4.20;99.90;;;;;;5059066;28;20446;-66
2022/12/09 09:29:50;;;;;;;38.22;19.45;;;4.00;99.90;;;;;;5026032;28;20021;-67
2022/12/09 09:32:16;;;;;;;40.20;20.45;;;3.80;99.90;;;;;;5059659;28;20066;-67
2022/12/09 09:34:44;;;;;;;37.22;19.70;;;4.00;99.90;;;;;;5059655;28;20069;-66
2022/12/09 09:37:10;;;;;;;38.28;19.38;;;3.70;99.90;;;;;;5058779;28;20036;-67
2022/12/09 09:39:36;;;;;;;35.83;18.88;;;3.50;99.90;;;;;;5058798;28;20039;-67
2022/12/09 09:42:11;;;;;;;37.58;20.13;;;3.80;99.90;;;;;;5058724;28;20037;-67
2022/12/09 09:44:49;;;;;;;40.20;20.63;;;3.80;99.90;;;;;;5059527;28;20025;-65
2022/12/09 09:47:40;;;;;;;39.40;20.67;;;4.30;99.90;;;;;;5059234;28;20067;-65
2022/12/09 09:50:30;;;;;;;32.55;18.48;;;4.60;99.90;;;;;;5056635;28;20041;-66
2022/12/09 09:52:56;;;;;;;35.58;18.85;;;4.90;99.90;;;;;;5058900;28;20032;-66
2022/12/09 09:55:38;;;;;;;30.20;18.40;;;5.00;99.90;;;;;;5042224;28;20052;-66
2022/12/09 09:58:30;;;;;;;33.63;18.53;;;5.00;99.90;;;;;;5059258;28;20048;-66
2022/12/09 10:01:06;;;;;;;34.58;19.60;;;5.20;99.90;;;;;;5058006;28;20268;-66
2022/12/09 10:03:57;;;;;;;34.75;18.42;;;5.20;99.90;;;;;;5059199;28;20029;-66
2022/12/09 10:07:09;;;;;;;31.08;18.30;;;4.80;99.90;;;;;;5058255;28;20091;-67
2022/12/09 10:10:19;;;;;;;31.40;18.77;;;5.00;99.90;;;;;;5053177;28;20056;-67
2022/12/09 10:12:51;;;;;;;33.60;17.75;;;5.80;99.90;;;;;;5019746;28;20385;-68
2022/12/09 10:15:27;;;;;;;21.52;13.07;;;6.30;99.90;;;;;;5058582;28;20404;-67
2022/12/09 10:18:21;;;;;;;30.45;18.08;;;6.30;99.90;;;;;;5059107;28;20135;-66
2022/12/09 10:20:47;;;;;;;33.15;18.45;;;6.30;99.90;;;;;;5058755;28;20104;-69
2022/12/09 10:23:14;;;;;;;32.20;18.60;;;6.70;99.90;;;;;;5041395;28;20065;-65
2022/12/09 10:25:58;;;;;;;32.38;17.92;;;6.30;99.90;;;;;;5058583;28;20033;-68
2022/12/09 10:28:25;;;;;;;31.08;17.73;;;5.80;99.90;;;;;;5057998;28;20430;-68
2022/12/09 10:30:53;;;;;;;30.77;17.65;;;6.10;99.90;;;;;;5057706;28;20103;-65
2022/12/09 10:33:44;;;;;;;35.97;19.38;;;5.50;99.90;;;;;;5058495;28;20048;-66
2022/12/09 10:36:26;;;;;;;29.73;18.08;;;4.80;99.90;;;;;;5057572;28;20045;-65
2022/12/09 10:38:52;;;;;;;32.42;18.23;;;4.40;99.90;;;;;;5057791;28;20021;-66
2022/12/09 10:44:32;;;;;;;31.30;17.17;;;4.80;99.90;;;;;;5058419;28;20301;-67
2022/12/09 10:47:05;;;;;;;31.55;17.13;;;5.80;99.90;;;;;;5058227;28;20033;-67
2022/12/09 10:49:33;;;;;;;31.90;17.35;;;5.50;99.90;;;;;;5058361;28;20037;-68
2022/12/09 10:52:00;;;;;;;31.55;17.83;;;5.00;99.90;;;;;;5058147;28;20041;-68
2022/12/09 10:54:34;;;;;;;30.33;17.65;;;5.10;99.90;;;;;;5057501;28;20041;-67
2022/12/09 10:57:27;;;;;;;36.75;17.88;;;4.70;99.90;;;;;;5057232;28;20111;-67
2022/12/09 10:59:59;;;;;;;37.38;19.65;;;4.50;99.90;;;;;;5057436;28;20411;-67
2022/12/09 11:02:26;;;;;;;33.83;19.23;;;4.20;99.90;;;;;;5058073;28;20102;-68
2022/12/09 11:04:53;;;;;;;32.55;17.63;;;4.40;99.90;;;;;;5057989;28;20389;-67
2022/12/09 11:07:22;;;;;;;32.08;17.73;;;4.50;99.90;;;;;;5057809;28;20115;-67
2022/12/09 11:09:57;;;;;;;33.38;17.85;;;4.50;99.90;;;;;;5058511;28;20040;-66
2022/12/09 11:12:25;;;;;;;34.58;18.30;;;4.30;99.90;;;;;;5057809;28;20035;-68
2022/12/09 11:14:53;;;;;;;32.35;17.10;;;4.40;99.90;;;;;;5040342;28;20041;-68
2022/12/09 11:17:28;;;;;;;35.20;18.40;;;4.50;99.90;;;;;;5057636;28;20380;-67
2022/12/09 11:20:19;;;;;;;38.15;19.17;;;4.50;99.90;;;;;;5057684;28;20029;-67
2022/12/09 11:22:56;;;;;;;34.53;18.35;;;4.20;99.90;;;;;;5057024;28;20445;-67
2022/12/09 11:25:29;;;;;;;37.13;18.20;;;4.20;99.90;;;;;;5057763;28;20270;-67
2022/12/09 11:27:58;;;;;;;51.70;24.80;;;4.20;99.90;;;;;;5057550;28;20139;-67
2022/12/09 11:30:37;;;;;;;44.30;23.25;;;4.20;99.90;;;;;;5056661;28;20083;-68
2022/12/09 11:33:12;;;;;;;34.33;17.25;;;3.90;99.90;;;;;;5055999;28;20066;-68
2022/12/09 11:35:44;;;;;;;33.03;16.40;;;4.00;99.90;;;;;;5057481;28;20292;-68
2022/12/09 11:38:22;;;;;;;33.80;16.73;;;4.30;99.90;;;;;;5056609;28;20110;-68
2022/12/09 11:41:10;;;;;;;30.50;15.38;;;4.70;99.90;;;;;;5056655;28;20174;-68
2022/12/09 11:43:40;;;;;;;31.55;16.27;;;5.20;99.90;;;;;;5057435;28;20029;-68
2022/12/09 11:46:28;;;;;;;29.85;15.70;;;5.60;99.90;;;;;;5056678;28;20108;-68
2022/12/09 11:49:01;;;;;;;28.40;14.82;;;6.10;99.90;;;;;;5057296;28;20040;-67
2022/12/09 11:51:42;;;;;;;24.35;14.18;;;6.30;99.90;;;;;;5056441;28;20037;-68
2022/12/09 11:54:40;;;;;;;26.48;14.38;;;5.90;99.90;;;;;;5057292;28;20041;-68
2022/12/09 11:57:20;;;;;;;26.63;14.05;;;6.20;99.90;;;;;;5032910;28;20136;-67
2022/12/09 11:59:55;;;;;;;26.77;14.75;;;6.10;99.90;;;;;;5056355;28;20031;-67
2022/12/09 12:02:40;;;;;;;28.33;14.68;;;6.10;99.90;;;;;;5057028;28;20036;-67
2022/12/09 12:05:24;;;;;;;28.33;15.30;;;5.60;99.90;;;;;;5057025;28;20025;-67
2022/12/09 12:08:02;;;;;;;27.45;14.23;;;5.30;99.90;;;;;;5056286;28;20040;-66
2022/12/09 12:10:38;;;;;;;26.05;14.38;;;4.70;99.90;;;;;;5056086;28;20144;-67
2022/12/09 12:13:46;;;;;;;29.48;14.75;;;4.20;99.90;;;;;;5056755;28;20120;-67
2022/12/09 12:16:33;;;;;;;27.63;14.43;;;4.40;99.90;;;;;;5019236;28;20091;-67
2022/12/09 12:19:37;;;;;;;29.27;14.48;;;4.60;99.90;;;;;;5035577;28;20026;-67
2022/12/09 12:22:22;;;;;;;29.75;14.70;;;4.80;99.90;;;;;;5048530;28;20062;-67
2022/12/09 12:24:57;;;;;;;28.13;14.98;;;4.80;99.90;;;;;;5056837;28;20288;-66
2022/12/09 12:28:01;;;;;;;29.08;14.07;;;5.00;99.90;;;;;;5056799;28;20342;-67
2022/12/09 12:30:48;;;;;;;26.60;13.77;;;4.70;99.90;;;;;;5056968;28;20082;-69
2022/12/09 12:33:20;;;;;;;29.08;14.30;;;4.60;99.90;;;;;;5056029;28;20202;-68
2022/12/09 12:36:19;;;;;;;28.53;14.10;;;4.70;99.90;;;;;;5055823;28;20364;-68
2022/12/09 12:39:17;;;;;;;25.00;13.18;;;4.50;99.90;;;;;;5055980;28;20279;-68
2022/12/09 12:41:54;;;;;;;30.00;13.85;;;4.30;99.90;;;;;;5051930;28;20102;-68
2022/12/09 12:47:50;;;;;;;28.83;13.95;;;4.20;99.90;;;;;;5059839;28;20067;-68
2022/12/09 12:50:59;;;;;;;27.50;14.45;;;4.30;99.90;;;;;;5061057;28;20025;-68
2022/12/09 12:53:59;;;;;;;29.30;14.15;;;4.50;99.90;;;;;;5059817;28;20041;-68
2022/12/09 12:56:49;;;;;;;25.58;13.13;;;4.80;99.90;;;;;;5059609;28;20070;-68
2022/12/09 12:59:30;;;;;;;27.05;14.10;;;5.00;99.90;;;;;;5059655;28;20029;-68
2022/12/09 13:02:19;;;;;;;24.73;13.52;;;5.20;99.90;;;;;;5059601;28;20432;-68
2022/12/09 13:04:50;;;;;;;23.33;12.68;;;5.30;99.90;;;;;;5057323;28;20324;-68
2022/12/09 13:07:37;;;;;;;23.15;13.02;;;5.40;99.90;;;;;;5060248;28;20049;-68